sensor_id;sensor_type;location;lat;lon;timestamp;pressure;altitude;pressure_sealevel;temperature;humidity
82375;BME280;72005;50.496;15.798;2024-03-02T00:00:08;94812.84;;;7.93;100.00
82375;BME280;72005;50.496;15.798;2024-03-02T00:03:00;94815.19;;;7.89;100.00
82375;BME280;72005;50.496;15.798;2024-03-02T00:05:26;94806.53;;;7.84;100.00
82375;BME280;72005;50.496;15.798;2024-03-02T00:07:57;94812.81;;;7.88;100.00
82375;BME280;72005;50.496;15.798;2024-03-02T00:10:25;94807.59;;;7.93;100.00
82375;BME280;72005;50.496;15.798;2024-03-02T00:12:57;94815.97;;;7.90;100.00
82375;BME280;72005;50.496;15.798;2024-03-02T00:18:12;94808.66;;;7.87;100.00
82375;BME280;72005;50.496;15.798;2024-03-02T00:20:39;94815.44;;;7.88;100.00
82375;BME280;72005;50.496;15.798;2024-03-02T00:23:07;94816.47;;;7.87;100.00
82375;BME280;72005;50.496;15.798;2024-03-02T00:25:49;94809.16;;;7.84;100.00
82375;BME280;72005;50.496;15.798;2024-03-02T00:28:32;94806.28;;;7.80;100.00
82375;BME280;72005;50.496;15.798;2024-03-02T00:31:13;94809.13;;;7.79;100.00
82375;BME280;72005;50.496;15.798;2024-03-02T00:33:47;94811.78;;;7.84;100.00
82375;BME280;72005;50.496;15.798;2024-03-02T00:36:22;94815.44;;;7.83;100.00
82375;BME280;72005;50.496;15.798;2024-03-02T00:38:51;94809.69;;;7.86;100.00
82375;BME280;72005;50.496;15.798;2024-03-02T00:41:25;94807.06;;;7.81;100.00
82375;BME280;72005;50.496;15.798;2024-03-02T00:44:05;94821.19;;;7.80;100.00
82375;BME280;72005;50.496;15.798;2024-03-02T00:46:38;94821.69;;;7.82;100.00
82375;BME280;72005;50.496;15.798;2024-03-02T00:49:11;94810.22;;;7.83;100.00
82375;BME280;72005;50.496;15.798;2024-03-02T00:51:37;94818.56;;;7.85;100.00
82375;BME280;72005;50.496;15.798;2024-03-02T00:54:05;94821.72;;;7.87;100.00
82375;BME280;72005;50.496;15.798;2024-03-02T00:56:32;94818.28;;;7.81;100.00
82375;BME280;72005;50.496;15.798;2024-03-02T00:58:58;94811.78;;;7.84;100.00
82375;BME280;72005;50.496;15.798;2024-03-02T01:01:24;94821.19;;;7.85;100.00
82375;BME280;72005;50.496;15.798;2024-03-02T01:03:50;94813.34;;;7.85;100.00
82375;BME280;72005;50.496;15.798;2024-03-02T01:06:16;94819.63;;;7.89;100.00
82375;BME280;72005;50.496;15.798;2024-03-02T01:08:42;94814.41;;;7.89;100.00
82375;BME280;72005;50.496;15.798;2024-03-02T01:11:08;94810.72;;;7.80;100.00
82375;BME280;72005;50.496;15.798;2024-03-02T01:13:34;94817.00;;;7.84;100.00
82375;BME280;72005;50.496;15.798;2024-03-02T01:16:00;94820.13;;;7.81;100.00
82375;BME280;72005;50.496;15.798;2024-03-02T01:18:26;94810.72;;;7.85;100.00
82375;BME280;72005;50.496;15.798;2024-03-02T01:20:52;94811.00;;;7.83;100.00
82375;BME280;72005;50.496;15.798;2024-03-02T01:23:19;94811.22;;;7.82;100.00
82375;BME280;72005;50.496;15.798;2024-03-02T01:25:46;94810.22;;;7.83;100.00
82375;BME280;72005;50.496;15.798;2024-03-02T01:28:13;94811.00;;;7.83;100.00
82375;BME280;72005;50.496;15.798;2024-03-02T01:30:38;94813.84;;;7.82;100.00
82375;BME280;72005;50.496;15.798;2024-03-02T01:33:04;94809.13;;;7.79;100.00
82375;BME280;72005;50.496;15.798;2024-03-02T01:35:31;94810.72;;;7.85;100.00
82375;BME280;72005;50.496;15.798;2024-03-02T01:37:57;94812.03;;;7.77;100.00
82375;BME280;72005;50.496;15.798;2024-03-02T01:40:23;94808.34;;;7.78;100.00
82375;BME280;72005;50.496;15.798;2024-03-02T01:42:53;94806.00;;;7.82;100.00
82375;BME280;72005;50.496;15.798;2024-03-02T01:45:23;94811.75;;;7.79;100.00
82375;BME280;72005;50.496;15.798;2024-03-02T01:47:49;94806.53;;;7.84;100.00
82375;BME280;72005;50.496;15.798;2024-03-02T01:50:21;94799.50;;;7.89;100.00
82375;BME280;72005;50.496;15.798;2024-03-02T01:52:49;94808.63;;;7.82;100.00
82375;BME280;72005;50.496;15.798;2024-03-02T01:55:15;94799.25;;;7.86;100.00
82375;BME280;72005;50.496;15.798;2024-03-02T01:57:41;94794.50;;;7.88;100.00
82375;BME280;72005;50.496;15.798;2024-03-02T02:00:07;94796.63;;;7.86;100.00
82375;BME280;72005;50.496;15.798;2024-03-02T02:02:33;94801.56;;;7.82;100.00
82375;BME280;72005;50.496;15.798;2024-03-02T02:04:59;94797.13;;;7.83;100.00
82375;BME280;72005;50.496;15.798;2024-03-02T02:07:24;94795.06;;;7.90;100.00
82375;BME280;72005;50.496;15.798;2024-03-02T02:09:50;94791.91;;;7.88;100.00
82375;BME280;72005;50.496;15.798;2024-03-02T02:12:16;94787.19;;;7.85;100.00
82375;BME280;72005;50.496;15.798;2024-03-02T02:14:49;94801.84;;;7.91;100.00
82375;BME280;72005;50.496;15.798;2024-03-02T02:17:16;94797.94;;;7.94;100.00
82375;BME280;72005;50.496;15.798;2024-03-02T02:19:42;94796.63;;;7.91;100.00
82375;BME280;72005;50.496;15.798;2024-03-02T02:22:09;94799.50;;;7.89;100.00
82375;BME280;72005;50.496;15.798;2024-03-02T02:24:35;94802.13;;;7.95;100.00
82375;BME280;72005;50.496;15.798;2024-03-02T02:27:01;94796.63;;;7.96;100.00
82375;BME280;72005;50.496;15.798;2024-03-02T02:29:26;94796.63;;;7.96;100.00
82375;BME280;72005;50.496;15.798;2024-03-02T02:31:52;94789.59;;;8.02;100.00
82375;BME280;72005;50.496;15.798;2024-03-02T02:34:18;94796.63;;;7.91;100.00
82375;BME280;72005;50.496;15.798;2024-03-02T02:36:44;94793.50;;;7.89;100.00
82375;BME280;72005;50.496;15.798;2024-03-02T02:39:15;94786.16;;;7.91;100.00
82375;BME280;72005;50.496;15.798;2024-03-02T02:41:42;94794.53;;;7.93;100.00
82375;BME280;72005;50.496;15.798;2024-03-02T02:44:08;94794.03;;;7.96;100.00
82375;BME280;72005;50.496;15.798;2024-03-02T02:46:34;94788.81;;;8.01;100.00
82375;BME280;72005;50.496;15.798;2024-03-02T02:48:59;94784.09;;;7.98;100.00
82375;BME280;72005;50.496;15.798;2024-03-02T02:51:25;94790.91;;;7.94;100.00
82375;BME280;72005;50.496;15.798;2024-03-02T02:53:51;94789.56;;;7.97;100.00
82375;BME280;72005;50.496;15.798;2024-03-02T02:56:17;94787.22;;;7.95;100.00
82375;BME280;72005;50.496;15.798;2024-03-02T02:58:43;94794.28;;;7.89;100.00
82375;BME280;72005;50.496;15.798;2024-03-02T03:01:08;94789.81;;;7.90;100.00
82375;BME280;72005;50.496;15.798;2024-03-02T03:03:34;94799.25;;;7.96;100.00
82375;BME280;72005;50.496;15.798;2024-03-02T03:06:00;94794.53;;;7.93;100.00
82375;BME280;72005;50.496;15.798;2024-03-02T03:08:25;94798.22;;;7.97;100.00
82375;BME280;72005;50.496;15.798;2024-03-02T03:10:51;94796.63;;;7.96;100.00
82375;BME280;72005;50.496;15.798;2024-03-02T03:13:19;94794.53;;;7.93;100.00
82375;BME280;72005;50.496;15.798;2024-03-02T03:15:45;94791.38;;;7.91;100.00
82375;BME280;72005;50.496;15.798;2024-03-02T03:18:11;94784.59;;;7.90;100.00
82375;BME280;72005;50.496;15.798;2024-03-02T03:20:37;94789.81;;;7.90;100.00
82375;BME280;72005;50.496;15.798;2024-03-02T03:23:02;94787.47;;;7.94;100.00
82375;BME280;72005;50.496;15.798;2024-03-02T03:25:30;94783.84;;;7.95;100.00
82375;BME280;72005;50.496;15.798;2024-03-02T03:27:55;94785.66;;;7.94;100.00
82375;BME280;72005;50.496;15.798;2024-03-02T03:30:21;94786.44;;;7.89;100.00
82375;BME280;72005;50.496;15.798;2024-03-02T03:32:47;94786.69;;;7.88;100.00
82375;BME280;72005;50.496;15.798;2024-03-02T03:35:14;94789.81;;;7.90;100.00
82375;BME280;72005;50.496;15.798;2024-03-02T03:37:40;94790.88;;;7.89;100.00
82375;BME280;72005;50.496;15.798;2024-03-02T03:40:07;94790.84;;;7.84;100.00
82375;BME280;72005;50.496;15.798;2024-03-02T03:42:36;94789.56;;;7.86;100.00
82375;BME280;72005;50.496;15.798;2024-03-02T03:45:03;94784.59;;;7.80;100.00
82375;BME280;72005;50.496;15.798;2024-03-02T03:47:28;94790.84;;;7.79;100.00
82375;BME280;72005;50.496;15.798;2024-03-02T03:49:54;94800.53;;;7.83;100.00
82375;BME280;72005;50.496;15.798;2024-03-02T03:52:20;94801.81;;;7.81;100.00
82375;BME280;72005;50.496;15.798;2024-03-02T03:54:46;94797.94;;;7.88;100.00
82375;BME280;72005;50.496;15.798;2024-03-02T03:57:12;94798.44;;;7.80;100.00
82375;BME280;72005;50.496;15.798;2024-03-02T03:59:38;94795.06;;;7.90;100.00
82375;BME280;72005;50.496;15.798;2024-03-02T04:02:03;94797.13;;;7.83;100.00
82375;BME280;72005;50.496;15.798;2024-03-02T04:04:30;94802.38;;;7.88;100.00
82375;BME280;72005;50.496;15.798;2024-03-02T04:06:55;94800.25;;;7.85;100.00
82375;BME280;72005;50.496;15.798;2024-03-02T04:09:21;94795.53;;;7.82;100.00
82375;BME280;72005;50.496;15.798;2024-03-02T04:11:47;94798.16;;;7.82;100.00
82375;BME280;72005;50.496;15.798;2024-03-02T04:14:13;94803.38;;;7.77;100.00
82375;BME280;72005;50.496;15.798;2024-03-02T04:16:38;94801.78;;;7.71;100.00
82375;BME280;72005;50.496;15.798;2024-03-02T04:19:04;94803.38;;;7.72;100.00
82375;BME280;72005;50.496;15.798;2024-03-02T04:21:30;94807.31;;;7.74;100.00
82375;BME280;72005;50.496;15.798;2024-03-02T04:23:56;94806.50;;;7.74;100.00
82375;BME280;72005;50.496;15.798;2024-03-02T04:26:25;94812.22;;;7.71;100.00
82375;BME280;72005;50.496;15.798;2024-03-02T04:28:52;94823.78;;;7.80;100.00
82375;BME280;72005;50.496;15.798;2024-03-02T04:31:18;94826.41;;;7.80;100.00
82375;BME280;72005;50.496;15.798;2024-03-02T04:33:44;94826.41;;;7.85;100.00
82375;BME280;72005;50.496;15.798;2024-03-02T04:36:10;94825.88;;;7.78;100.00
82375;BME280;72005;50.496;15.798;2024-03-02T04:38:36;94830.84;;;7.84;100.00
82375;BME280;72005;50.496;15.798;2024-03-02T04:41:02;94829.56;;;7.87;100.00
82375;BME280;72005;50.496;15.798;2024-03-02T04:43:27;94832.69;;;7.84;100.00
82375;BME280;72005;50.496;15.798;2024-03-02T04:45:53;94832.94;;;7.87;100.00
82375;BME280;72005;50.496;15.798;2024-03-02T04:48:19;94838.44;;;7.81;100.00
82375;BME280;72005;50.496;15.798;2024-03-02T04:50:45;94835.31;;;7.84;100.00
82375;BME280;72005;50.496;15.798;2024-03-02T04:53:11;94845.50;;;7.85;100.00
82375;BME280;72005;50.496;15.798;2024-03-02T04:55:36;94843.16;;;7.84;100.00
82375;BME280;72005;50.496;15.798;2024-03-02T04:58:05;94839.47;;;7.80;100.00
82375;BME280;72005;50.496;15.798;2024-03-02T05:00:35;94845.25;;;7.87;100.00
82375;BME280;72005;50.496;15.798;2024-03-02T05:03:01;94841.59;;;7.83;100.00
82375;BME280;72005;50.496;15.798;2024-03-02T05:05:27;94851.53;;;7.86;100.00
82375;BME280;72005;50.496;15.798;2024-03-02T05:07:53;94851.25;;;7.87;100.00
82375;BME280;72005;50.496;15.798;2024-03-02T05:10:19;94860.91;;;7.82;100.00
82375;BME280;72005;50.496;15.798;2024-03-02T05:12:44;94857.78;;;7.85;100.00
82375;BME280;72005;50.496;15.798;2024-03-02T05:15:11;94853.09;;;7.87;100.00
82375;BME280;72005;50.496;15.798;2024-03-02T05:17:38;94863.28;;;7.83;100.00
82375;BME280;72005;50.496;15.798;2024-03-02T05:20:05;94868.50;;;7.83;100.00
82375;BME280;72005;50.496;15.798;2024-03-02T05:22:31;94864.31;;;7.87;100.00
82375;BME280;72005;50.496;15.798;2024-03-02T05:24:57;94867.47;;;7.89;100.00
82375;BME280;72005;50.496;15.798;2024-03-02T05:27:24;94866.69;;;7.89;100.00
82375;BME280;72005;50.496;15.798;2024-03-02T05:29:50;94867.47;;;7.89;100.00
82375;BME280;72005;50.496;15.798;2024-03-02T05:32:15;94869.31;;;7.89;100.00
82375;BME280;72005;50.496;15.798;2024-03-02T05:34:41;94870.38;;;7.93;100.00
82375;BME280;72005;50.496;15.798;2024-03-02T05:37:07;94876.66;;;7.92;100.00
82375;BME280;72005;50.496;15.798;2024-03-02T05:39:33;94861.75;;;7.93;100.00
82375;BME280;72005;50.496;15.798;2024-03-02T05:41:58;94864.59;;;7.91;100.00
82375;BME280;72005;50.496;15.798;2024-03-02T05:44:24;94867.75;;;7.93;100.00
82375;BME280;72005;50.496;15.798;2024-03-02T05:46:50;94871.94;;;7.94;100.00
82375;BME280;72005;50.496;15.798;2024-03-02T05:49:15;94875.34;;;7.95;100.00
82375;BME280;72005;50.496;15.798;2024-03-02T05:51:41;94876.13;;;7.95;100.00
82375;BME280;72005;50.496;15.798;2024-03-02T05:54:07;94875.59;;;7.93;100.00
82375;BME280;72005;50.496;15.798;2024-03-02T05:56:33;94877.69;;;7.96;100.00
82375;BME280;72005;50.496;15.798;2024-03-02T05:58:58;94872.47;;;7.96;100.00
82375;BME280;72005;50.496;15.798;2024-03-02T06:01:45;94873.75;;;7.94;100.00
82375;BME280;72005;50.496;15.798;2024-03-02T06:04:12;94879.25;;;7.92;100.00
82375;BME280;72005;50.496;15.798;2024-03-02T06:06:41;94886.06;;;7.93;100.00
82375;BME280;72005;50.496;15.798;2024-03-02T06:09:07;94883.91;;;7.85;100.00
82375;BME280;72005;50.496;15.798;2024-03-02T06:11:40;94890.94;;;7.79;100.00
82375;BME280;72005;50.496;15.798;2024-03-02T06:14:07;94897.50;;;7.82;100.00
82375;BME280;72005;50.496;15.798;2024-03-02T06:16:34;94894.09;;;7.81;100.00
82375;BME280;72005;50.496;15.798;2024-03-02T06:19:00;94885.44;;;7.76;100.00
82375;BME280;72005;50.496;15.798;2024-03-02T06:21:27;94895.13;;;7.75;100.00
82375;BME280;72005;50.496;15.798;2024-03-02T06:23:53;94898.53;;;7.76;100.00
82375;BME280;72005;50.496;15.798;2024-03-02T06:26:19;94898.00;;;7.79;100.00
82375;BME280;72005;50.496;15.798;2024-03-02T06:28:46;94893.56;;;7.79;100.00
82375;BME280;72005;50.496;15.798;2024-03-02T06:31:12;94894.38;;;7.80;100.00
82375;BME280;72005;50.496;15.798;2024-03-02T06:33:38;94897.22;;;7.78;100.00
82375;BME280;72005;50.496;15.798;2024-03-02T06:36:04;94897.50;;;7.82;100.00
82375;BME280;72005;50.496;15.798;2024-03-02T06:38:30;94901.72;;;7.88;100.00
82375;BME280;72005;50.496;15.798;2024-03-02T06:40:57;94898.88;;;7.95;100.00
82375;BME280;72005;50.496;15.798;2024-03-02T06:43:23;94904.88;;;7.90;100.00
82375;BME280;72005;50.496;15.798;2024-03-02T06:45:50;94913.25;;;7.92;100.00
82375;BME280;72005;50.496;15.798;2024-03-02T06:48:17;94913.50;;;7.90;100.00
82375;BME280;72005;50.496;15.798;2024-03-02T06:50:49;94910.38;;;7.94;100.00
82375;BME280;72005;50.496;15.798;2024-03-02T06:53:15;94914.31;;;7.96;100.00
82375;BME280;72005;50.496;15.798;2024-03-02T06:55:45;94902.28;;;7.95;100.00
82375;BME280;72005;50.496;15.798;2024-03-02T06:58:12;94911.44;;;7.98;100.00
82375;BME280;72005;50.496;15.798;2024-03-02T07:00:37;94902.56;;;7.99;100.00
82375;BME280;72005;50.496;15.798;2024-03-02T07:03:04;94908.06;;;8.02;100.00
82375;BME280;72005;50.496;15.798;2024-03-02T07:05:29;94912.50;;;8.02;100.00
82375;BME280;72005;50.496;15.798;2024-03-02T07:07:55;94909.63;;;8.03;100.00
82375;BME280;72005;50.496;15.798;2024-03-02T07:10:21;94906.25;;;8.08;100.00
82375;BME280;72005;50.496;15.798;2024-03-02T07:12:47;94906.53;;;8.11;100.00
82375;BME280;72005;50.496;15.798;2024-03-02T07:15:12;94902.59;;;8.14;100.00
82375;BME280;72005;50.496;15.798;2024-03-02T07:17:55;94895.03;;;8.18;100.00
82375;BME280;72005;50.496;15.798;2024-03-02T07:20:21;94895.56;;;8.20;100.00
82375;BME280;72005;50.496;15.798;2024-03-02T07:22:47;94899.25;;;8.24;100.00
82375;BME280;72005;50.496;15.798;2024-03-02T07:25:13;94905.53;;;8.28;100.00
82375;BME280;72005;50.496;15.798;2024-03-02T07:27:39;94906.09;;;8.35;100.00
82375;BME280;72005;50.496;15.798;2024-03-02T07:30:06;94903.53;;;8.40;100.00
82375;BME280;72005;50.496;15.798;2024-03-02T07:32:32;94910.31;;;8.41;100.00
82375;BME280;72005;50.496;15.798;2024-03-02T07:34:58;94908.50;;;8.47;100.00
82375;BME280;72005;50.496;15.798;2024-03-02T07:37:24;94910.84;;;8.48;100.00
82375;BME280;72005;50.496;15.798;2024-03-02T07:39:50;94919.22;;;8.50;100.00
82375;BME280;72005;50.496;15.798;2024-03-02T07:42:17;94925.50;;;8.54;100.00
82375;BME280;72005;50.496;15.798;2024-03-02T07:44:44;94929.44;;;8.57;100.00
82375;BME280;72005;50.496;15.798;2024-03-02T07:47:10;94937.06;;;8.58;100.00
82375;BME280;72005;50.496;15.798;2024-03-02T07:49:36;94941.00;;;8.61;100.00
82375;BME280;72005;50.496;15.798;2024-03-02T07:52:02;94947.00;;;8.62;100.00
82375;BME280;72005;50.496;15.798;2024-03-02T07:54:30;94950.16;;;8.64;100.00
82375;BME280;72005;50.496;15.798;2024-03-02T07:57:01;94955.41;;;8.64;100.00
82375;BME280;72005;50.496;15.798;2024-03-02T07:59:27;94954.88;;;8.67;100.00
82375;BME280;72005;50.496;15.798;2024-03-02T08:01:53;94964.84;;;8.70;100.00
82375;BME280;72005;50.496;15.798;2024-03-02T08:04:20;94957.53;;;8.72;100.00
82375;BME280;72005;50.496;15.798;2024-03-02T08:06:46;94969.56;;;8.73;100.00
82375;BME280;72005;50.496;15.798;2024-03-02T08:09:12;94972.16;;;8.73;100.00
82375;BME280;72005;50.496;15.798;2024-03-02T08:11:38;94967.72;;;8.73;100.00
82375;BME280;72005;50.496;15.798;2024-03-02T08:14:04;94963.03;;;8.75;100.00
82375;BME280;72005;50.496;15.798;2024-03-02T08:16:30;94970.59;;;8.77;100.00
82375;BME280;72005;50.496;15.798;2024-03-02T08:18:55;94970.59;;;8.77;100.00
82375;BME280;72005;50.496;15.798;2024-03-02T08:21:24;94966.44;;;8.81;100.00
82375;BME280;72005;50.496;15.798;2024-03-02T08:23:50;94973.22;;;8.82;100.00
82375;BME280;72005;50.496;15.798;2024-03-02T08:26:16;94972.72;;;8.85;100.00
82375;BME280;72005;50.496;15.798;2024-03-02T08:28:42;94973.78;;;8.89;100.00
82375;BME280;72005;50.496;15.798;2024-03-02T08:31:08;94980.06;;;8.93;100.00
82375;BME280;72005;50.496;15.798;2024-03-02T08:33:34;94979.00;;;8.94;100.00
82375;BME280;72005;50.496;15.798;2024-03-02T08:36:01;94972.47;;;8.92;100.00
82375;BME280;72005;50.496;15.798;2024-03-02T08:38:27;94983.75;;;8.92;100.00
82375;BME280;72005;50.496;15.798;2024-03-02T08:40:53;94979.03;;;8.89;100.00
82375;BME280;72005;50.496;15.798;2024-03-02T08:43:19;94975.88;;;8.87;100.00
82375;BME280;72005;50.496;15.798;2024-03-02T08:45:45;94974.03;;;8.88;100.00
82375;BME280;72005;50.496;15.798;2024-03-02T08:48:12;94973.78;;;8.89;100.00
82375;BME280;72005;50.496;15.798;2024-03-02T08:50:38;94980.59;;;8.90;100.00
82375;BME280;72005;50.496;15.798;2024-03-02T08:53:04;94981.38;;;8.91;100.00
82375;BME280;72005;50.496;15.798;2024-03-02T08:55:30;94972.47;;;8.92;100.00
82375;BME280;72005;50.496;15.798;2024-03-02T08:57:56;94970.66;;;8.92;100.00
82375;BME280;72005;50.496;15.798;2024-03-02T09:00:23;94975.09;;;8.97;100.00
82375;BME280;72005;50.496;15.798;2024-03-02T09:02:48;94979.03;;;8.99;100.00
82375;BME280;72005;50.496;15.798;2024-03-02T09:05:15;94976.94;;;9.01;100.00
82375;BME280;72005;50.496;15.798;2024-03-02T09:07:41;94978.75;;;9.06;100.00
82375;BME280;72005;50.496;15.798;2024-03-02T09:10:08;94975.13;;;9.07;100.00
82375;BME280;72005;50.496;15.798;2024-03-02T09:12:34;94968.28;;;9.06;100.00
82375;BME280;72005;50.496;15.798;2024-03-02T09:15:01;94976.69;;;9.08;100.00
82375;BME280;72005;50.496;15.798;2024-03-02T09:17:27;94973.81;;;9.10;100.00
82375;BME280;72005;50.496;15.798;2024-03-02T09:19:53;94977.47;;;9.14;100.00
82375;BME280;72005;50.496;15.798;2024-03-02T09:22:19;94971.19;;;9.15;100.00
82375;BME280;72005;50.496;15.798;2024-03-02T09:24:45;94965.44;;;9.18;100.00
82375;BME280;72005;50.496;15.798;2024-03-02T09:27:11;94971.19;;;9.20;100.00
82375;BME280;72005;50.496;15.798;2024-03-02T09:29:37;94962.28;;;9.26;100.00
82375;BME280;72005;50.496;15.798;2024-03-02T09:32:04;94968.59;;;9.30;100.00
82375;BME280;72005;50.496;15.798;2024-03-02T09:34:31;94976.47;;;9.35;100.00
82375;BME280;72005;50.496;15.798;2024-03-02T09:36:57;94969.09;;;9.37;100.00
82375;BME280;72005;50.496;15.798;2024-03-02T09:39:23;94964.91;;;9.41;100.00
82375;BME280;72005;50.496;15.798;2024-03-02T09:41:50;94964.38;;;9.44;100.00
82375;BME280;72005;50.496;15.798;2024-03-02T09:44:16;94957.81;;;9.52;100.00
82375;BME280;72005;50.496;15.798;2024-03-02T09:46:42;94963.84;;;9.58;100.00
82375;BME280;72005;50.496;15.798;2024-03-02T09:49:10;94964.38;;;9.65;100.00
82375;BME280;72005;50.496;15.798;2024-03-02T09:51:40;94964.38;;;9.65;100.00
82375;BME280;72005;50.496;15.798;2024-03-02T09:54:07;94957.56;;;9.64;100.00
82375;BME280;72005;50.496;15.798;2024-03-02T09:56:33;94962.00;;;9.68;100.00
82375;BME280;72005;50.496;15.798;2024-03-02T09:58:59;94969.88;;;9.68;100.00
82375;BME280;72005;50.496;15.798;2024-03-02T10:01:25;94965.94;;;9.66;100.00
82375;BME280;72005;50.496;15.798;2024-03-02T10:03:51;94959.66;;;9.67;100.00
82375;BME280;72005;50.496;15.798;2024-03-02T10:06:21;94964.91;;;9.62;100.00
82375;BME280;72005;50.496;15.798;2024-03-02T10:08:47;94957.81;;;9.67;100.00
82375;BME280;72005;50.496;15.798;2024-03-02T10:11:30;94971.19;;;9.66;100.00
82375;BME280;72005;50.496;15.798;2024-03-02T10:14:12;94961.50;;;9.61;100.00
82375;BME280;72005;50.496;15.798;2024-03-02T10:16:43;94958.06;;;9.71;100.00
82375;BME280;72005;50.496;15.798;2024-03-02T10:19:16;94961.75;;;9.70;100.00
82375;BME280;72005;50.496;15.798;2024-03-02T10:21:49;94963.31;;;9.81;100.00
82375;BME280;72005;50.496;15.798;2024-03-02T10:24:16;94956.47;;;9.90;100.00
82375;BME280;72005;50.496;15.798;2024-03-02T10:26:41;94958.81;;;9.97;100.00
82375;BME280;72005;50.496;15.798;2024-03-02T10:29:11;94964.03;;;10.02;100.00
82375;BME280;72005;50.496;15.798;2024-03-02T10:31:42;94955.88;;;10.04;100.00
82375;BME280;72005;50.496;15.798;2024-03-02T10:34:10;94956.94;;;10.08;100.00
82375;BME280;72005;50.496;15.798;2024-03-02T10:36:36;94956.66;;;10.09;100.00
82375;BME280;72005;50.496;15.798;2024-03-02T10:39:06;94959.03;;;10.11;100.00
82375;BME280;72005;50.496;15.798;2024-03-02T10:41:37;94959.03;;;10.16;100.00
82375;BME280;72005;50.496;15.798;2024-03-02T10:44:07;94955.09;;;10.13;100.00
82375;BME280;72005;50.496;15.798;2024-03-02T10:46:35;94943.53;;;10.09;100.00
82375;BME280;72005;50.496;15.798;2024-03-02T10:49:03;94963.81;;;9.88;98.49
82375;BME280;72005;50.496;15.798;2024-03-02T10:51:33;94950.94;;;9.97;98.90
82375;BME280;72005;50.496;15.798;2024-03-02T10:54:02;94960.91;;;9.95;99.04
82375;BME280;72005;50.496;15.798;2024-03-02T10:56:42;94962.22;;;9.98;98.96
82375;BME280;72005;50.496;15.798;2024-03-02T10:59:21;94952.25;;;10.00;98.80
82375;BME280;72005;50.496;15.798;2024-03-02T11:01:50;94961.19;;;9.93;97.91
82375;BME280;72005;50.496;15.798;2024-03-02T11:04:18;94958.81;;;9.97;97.71
82375;BME280;72005;50.496;15.798;2024-03-02T11:06:48;94951.47;;;9.89;97.16
82375;BME280;72005;50.496;15.798;2024-03-02T11:09:14;94948.59;;;9.90;97.94
82375;BME280;72005;50.496;15.798;2024-03-02T11:11:43;94954.38;;;9.72;96.10
82375;BME280;72005;50.496;15.798;2024-03-02T11:14:13;94958.06;;;9.76;96.79
82375;BME280;72005;50.496;15.798;2024-03-02T11:16:39;94954.91;;;9.79;97.44
82375;BME280;72005;50.496;15.798;2024-03-02T11:19:10;94945.97;;;9.80;97.33
82375;BME280;72005;50.496;15.798;2024-03-02T11:21:36;94938.59;;;9.92;97.36
82375;BME280;72005;50.496;15.798;2024-03-02T11:26:59;94942.00;;;9.98;95.29
82375;BME280;72005;50.496;15.798;2024-03-02T11:32:01;94938.59;;;10.03;94.90
82375;BME280;72005;50.496;15.798;2024-03-02T11:34:31;94940.69;;;10.01;95.15
82375;BME280;72005;50.496;15.798;2024-03-02T11:36:58;94932.03;;;10.05;95.73
82375;BME280;72005;50.496;15.798;2024-03-02T11:39:27;94937.03;;;10.02;95.80
82375;BME280;72005;50.496;15.798;2024-03-02T11:41:53;94931.19;;;10.15;96.36
82375;BME280;72005;50.496;15.798;2024-03-02T11:44:20;94937.97;;;10.26;96.66
82375;BME280;72005;50.496;15.798;2024-03-02T11:46:52;94932.25;;;10.19;95.27
82375;BME280;72005;50.496;15.798;2024-03-02T11:49:42;94929.66;;;10.09;94.92
82375;BME280;72005;50.496;15.798;2024-03-02T11:52:10;94939.91;;;10.05;94.83
82375;BME280;72005;50.496;15.798;2024-03-02T11:54:37;94931.72;;;10.12;95.48
82375;BME280;72005;50.496;15.798;2024-03-02T11:57:11;94937.50;;;10.19;95.51
82375;BME280;72005;50.496;15.798;2024-03-02T11:59:37;94928.31;;;10.22;95.48
82375;BME280;72005;50.496;15.798;2024-03-02T12:02:03;94931.19;;;10.30;96.18
82375;BME280;72005;50.496;15.798;2024-03-02T12:04:29;94930.59;;;10.38;95.84
82375;BME280;72005;50.496;15.798;2024-03-02T12:07:00;94933.28;;;10.33;95.04
82375;BME280;72005;50.496;15.798;2024-03-02T12:09:27;94931.13;;;10.35;94.37
82375;BME280;72005;50.496;15.798;2024-03-02T12:12:02;94934.81;;;10.34;94.54
82375;BME280;72005;50.496;15.798;2024-03-02T12:14:30;94933.81;;;10.30;94.16
82375;BME280;72005;50.496;15.798;2024-03-02T12:16:55;94930.94;;;10.22;94.03
82375;BME280;72005;50.496;15.798;2024-03-02T12:19:25;94931.19;;;10.15;93.56
82375;BME280;72005;50.496;15.798;2024-03-02T12:21:52;94924.88;;;10.21;94.34
82375;BME280;72005;50.496;15.798;2024-03-02T12:24:18;94927.78;;;10.20;94.15
82375;BME280;72005;50.496;15.798;2024-03-02T12:26:44;94931.69;;;10.22;94.55
82375;BME280;72005;50.496;15.798;2024-03-02T12:29:10;94926.47;;;10.22;94.80
82375;BME280;72005;50.496;15.798;2024-03-02T12:31:36;94930.16;;;10.16;93.96
82375;BME280;72005;50.496;15.798;2024-03-02T12:34:03;94925.91;;;10.25;94.66
82375;BME280;72005;50.496;15.798;2024-03-02T12:36:29;94934.34;;;10.27;94.22
82375;BME280;72005;50.496;15.798;2024-03-02T12:38:55;94931.69;;;10.22;94.48
82375;BME280;72005;50.496;15.798;2024-03-02T12:41:21;94926.47;;;10.22;94.34
82375;BME280;72005;50.496;15.798;2024-03-02T12:43:46;94923.84;;;10.27;94.43
82375;BME280;72005;50.496;15.798;2024-03-02T12:46:12;94927.47;;;10.26;94.21
82375;BME280;72005;50.496;15.798;2024-03-02T12:48:39;94927.75;;;10.30;94.39
82375;BME280;72005;50.496;15.798;2024-03-02T12:51:06;94930.13;;;10.21;94.19
82375;BME280;72005;50.496;15.798;2024-03-02T12:53:32;94932.28;;;10.09;92.64
82375;BME280;72005;50.496;15.798;2024-03-02T12:55:58;94915.00;;;9.92;92.22
82375;BME280;72005;50.496;15.798;2024-03-02T12:58:24;94924.97;;;9.96;93.01